Time;durP1;ratioP1;P1;durP2;ratioP2;P2;SDS_P1;SDS_P2;PMS_P1;PMS_P2;Temp;Humidity;BMP_temperature;BMP_pressure;BME280_temperature;BME280_humidity;BME280_pressure;Samples;Min_cycle;Max_cycle;Signal;HPM_P1;HPM_P2
2021/11/04 00:01:26;;;;;;;34.05;18.50;;;;;;;;;;4940161;28;20359;-66
2021/11/04 00:03:52;;;;;;;33.67;18.88;;;;;;;;;;4938383;28;20118;-66
2021/11/04 00:06:17;;;;;;;35.33;19.70;;;;;;;;;;4947130;28;20055;-66
2021/11/04 00:08:42;;;;;;;34.85;19.70;;;;;;;;;;4937099;29;20023;-66
2021/11/04 00:11:07;;;;;;;39.75;20.42;;;;;;;;;;4946192;28;20528;-65
2021/11/04 00:13:33;;;;;;;37.65;19.95;;;;;;;;;;4958800;28;20458;-66
2021/11/04 00:15:58;;;;;;;38.50;20.83;;;;;;;;;;4940401;28;20532;-66
2021/11/04 00:18:23;;;;;;;39.25;20.35;;;;;;;;;;4941926;28;20784;-65
2021/11/04 00:20:48;;;;;;;34.08;19.63;;;;;;;;;;4940530;28;20615;-65
2021/11/04 00:23:13;;;;;;;38.85;20.83;;;;;;;;;;4944569;28;20427;-65
2021/11/04 00:25:39;;;;;;;38.78;21.52;;;;;;;;;;4947711;28;20046;-65
2021/11/04 00:28:04;;;;;;;38.97;20.95;;;;;;;;;;4947020;28;20023;-65
2021/11/04 00:30:29;;;;;;;41.38;22.02;;;;;;;;;;4941418;28;20047;-65
2021/11/04 00:32:54;;;;;;;41.95;22.13;;;;;;;;;;4939130;28;20030;-65
2021/11/04 00:35:20;;;;;;;44.90;21.67;;;;;;;;;;4943952;28;20105;-65
2021/11/04 00:37:45;;;;;;;44.33;22.75;;;;;;;;;;4938925;28;20027;-65
2021/11/04 00:40:11;;;;;;;38.30;20.05;;;;;;;;;;4940413;28;20019;-65
2021/11/04 00:42:36;;;;;;;41.50;21.77;;;;;;;;;;4945775;28;20113;-65
2021/11/04 00:45:01;;;;;;;43.20;21.95;;;;;;;;;;4942413;28;20060;-65
2021/11/04 00:47:26;;;;;;;46.80;23.55;;;;;;;;;;4947440;28;20110;-65
2021/11/04 00:49:52;;;;;;;47.30;23.05;;;;;;;;;;4947007;28;20083;-65
2021/11/04 00:52:17;;;;;;;45.53;22.85;;;;;;;;;;4942963;28;20105;-65
2021/11/04 00:54:42;;;;;;;49.22;23.70;;;;;;;;;;4951838;28;20047;-65
2021/11/04 00:57:07;;;;;;;51.65;24.65;;;;;;;;;;4943262;28;20056;-65
2021/11/04 00:59:32;;;;;;;56.47;26.95;;;;;;;;;;4945830;28;20032;-65
2021/11/04 01:01:58;;;;;;;54.40;25.67;;;;;;;;;;4947079;28;20043;-65
2021/11/04 01:04:23;;;;;;;63.20;28.13;;;;;;;;;;4945525;28;20023;-65
2021/11/04 01:06:48;;;;;;;58.63;28.35;;;;;;;;;;4946057;28;20032;-65
2021/11/04 01:09:13;;;;;;;61.08;28.52;;;;;;;;;;4947343;29;20027;-65
2021/11/04 01:11:38;;;;;;;68.15;29.55;;;;;;;;;;4946891;28;20122;-65
2021/11/04 01:14:04;;;;;;;59.40;28.80;;;;;;;;;;4952672;28;20032;-65
2021/11/04 01:16:29;;;;;;;65.03;29.30;;;;;;;;;;4949618;28;20031;-65
2021/11/04 01:18:54;;;;;;;69.53;30.55;;;;;;;;;;4949827;28;20036;-65
2021/11/04 01:21:19;;;;;;;64.72;30.15;;;;;;;;;;4949521;28;20039;-65
2021/11/04 01:23:45;;;;;;;68.38;30.13;;;;;;;;;;4950500;28;20027;-65
2021/11/04 01:26:10;;;;;;;63.75;29.20;;;;;;;;;;4947308;28;20137;-65
2021/11/04 01:28:35;;;;;;;60.35;27.77;;;;;;;;;;4949284;28;20023;-65
2021/11/04 01:31:00;;;;;;;68.55;29.75;;;;;;;;;;4944839;28;20051;-66
2021/11/04 01:33:26;;;;;;;62.78;30.05;;;;;;;;;;4950203;28;20026;-65
2021/11/04 01:35:51;;;;;;;63.85;29.58;;;;;;;;;;4940421;28;20485;-65
2021/11/04 01:38:18;;;;;;;62.25;28.52;;;;;;;;;;4946313;28;20564;-65
2021/11/04 01:40:43;;;;;;;69.75;29.65;;;;;;;;;;4940672;28;20102;-65
2021/11/04 01:43:08;;;;;;;63.22;29.95;;;;;;;;;;4947106;28;20105;-65
2021/11/04 01:45:34;;;;;;;64.78;29.23;;;;;;;;;;4948044;28;20126;-65
2021/11/04 01:48:00;;;;;;;74.95;31.08;;;;;;;;;;4950339;28;20023;-65
2021/11/04 01:50:25;;;;;;;63.40;28.38;;;;;;;;;;4947623;28;20218;-65
2021/11/04 01:52:50;;;;;;;75.32;31.40;;;;;;;;;;4945114;28;20047;-65
2021/11/04 01:55:20;;;;;;;76.18;31.60;;;;;;;;;;4940863;28;20074;-65
2021/11/04 01:57:45;;;;;;;74.03;32.22;;;;;;;;;;4946173;28;20177;-65
2021/11/04 02:00:11;;;;;;;81.05;33.22;;;;;;;;;;4949762;28;20019;-65
2021/11/04 02:02:40;;;;;;;85.70;32.15;;;;;;;;;;4948071;28;20015;-65
2021/11/04 02:05:05;;;;;;;67.95;29.63;;;;;;;;;;4963644;28;20492;-65
2021/11/04 02:07:43;;;;;;;79.75;33.10;;;;;;;;;;4938582;28;20546;-65
2021/11/04 02:10:08;;;;;;;82.85;33.13;;;;;;;;;;4937701;28;20035;-65
2021/11/04 02:12:53;;;;;;;88.45;33.65;;;;;;;;;;4945702;28;20035;-65
2021/11/04 02:15:21;;;;;;;82.47;32.40;;;;;;;;;;4940312;28;20047;-64
2021/11/04 02:17:47;;;;;;;78.40;30.73;;;;;;;;;;4948258;29;20403;-65
2021/11/04 02:20:14;;;;;;;90.72;33.72;;;;;;;;;;4940342;28;20069;-65
2021/11/04 02:22:49;;;;;;;83.40;33.28;;;;;;;;;;4928947;28;20395;-65
2021/11/04 02:25:14;;;;;;;71.85;29.85;;;;;;;;;;4956945;28;20028;-66
2021/11/04 02:27:40;;;;;;;70.07;30.40;;;;;;;;;;4948919;28;20587;-65
2021/11/04 02:30:05;;;;;;;72.05;32.90;;;;;;;;;;4946484;28;20031;-66
2021/11/04 02:32:31;;;;;;;81.95;33.38;;;;;;;;;;4947010;28;20043;-66
2021/11/04 02:34:56;;;;;;;74.88;31.45;;;;;;;;;;4945736;28;20079;-65
2021/11/04 02:37:21;;;;;;;71.60;30.88;;;;;;;;;;4947351;28;20039;-66
2021/11/04 02:39:46;;;;;;;72.57;33.05;;;;;;;;;;4944295;28;20031;-64
2021/11/04 02:42:12;;;;;;;60.90;26.77;;;;;;;;;;4942034;28;20525;-65
2021/11/04 02:44:37;;;;;;;71.53;31.70;;;;;;;;;;4944011;28;20126;-65
2021/11/04 02:47:02;;;;;;;66.75;29.88;;;;;;;;;;4945781;28;20054;-65
2021/11/04 02:49:27;;;;;;;71.93;31.52;;;;;;;;;;4943256;28;20041;-65
2021/11/04 02:51:53;;;;;;;65.90;30.05;;;;;;;;;;4937321;28;20542;-65
2021/11/04 02:54:18;;;;;;;63.72;29.67;;;;;;;;;;4940872;28;20027;-63
2021/11/04 02:56:47;;;;;;;74.53;33.25;;;;;;;;;;4948420;28;20485;-66
2021/11/04 02:59:13;;;;;;;83.30;35.10;;;;;;;;;;4945156;28;20904;-66
2021/11/04 03:01:39;;;;;;;87.30;35.88;;;;;;;;;;4943087;28;20067;-66
2021/11/04 03:04:05;;;;;;;87.15;36.35;;;;;;;;;;4945168;28;20056;-65
2021/11/04 03:06:30;;;;;;;85.72;34.67;;;;;;;;;;4945555;28;20042;-65
2021/11/04 03:08:55;;;;;;;91.75;35.13;;;;;;;;;;4946603;29;20034;-66
2021/11/04 03:11:20;;;;;;;76.85;32.72;;;;;;;;;;4947785;28;20038;-65
2021/11/04 03:13:45;;;;;;;91.03;34.70;;;;;;;;;;4961432;28;20041;-65
2021/11/04 03:16:11;;;;;;;83.25;35.88;;;;;;;;;;4942690;28;20051;-66
2021/11/04 03:18:36;;;;;;;84.40;33.60;;;;;;;;;;4943961;29;20022;-66
2021/11/04 03:21:01;;;;;;;87.60;35.65;;;;;;;;;;4945917;28;20043;-66
2021/11/04 03:23:26;;;;;;;90.20;36.67;;;;;;;;;;4942042;29;20491;-65
2021/11/04 03:25:51;;;;;;;87.22;32.50;;;;;;;;;;4946069;28;20490;-66
2021/11/04 03:28:17;;;;;;;87.80;35.47;;;;;;;;;;4945897;28;20666;-66
2021/11/04 03:30:42;;;;;;;81.50;32.50;;;;;;;;;;4947771;28;20772;-66
2021/11/04 03:33:08;;;;;;;83.90;34.92;;;;;;;;;;4934183;28;20127;-65
2021/11/04 03:35:35;;;;;;;87.50;35.05;;;;;;;;;;4943921;28;20035;-65
2021/11/04 03:38:00;;;;;;;95.95;36.72;;;;;;;;;;4945272;29;20027;-66
2021/11/04 03:40:26;;;;;;;82.43;34.03;;;;;;;;;;4940732;29;20043;-65
2021/11/04 03:42:51;;;;;;;79.53;33.72;;;;;;;;;;4946593;28;20012;-65
2021/11/04 03:45:16;;;;;;;81.30;31.58;;;;;;;;;;4945048;28;20100;-65
2021/11/04 03:47:42;;;;;;;80.20;33.67;;;;;;;;;;4942534;28;20102;-66
2021/11/04 03:50:08;;;;;;;84.18;33.13;;;;;;;;;;4946721;28;20033;-66
2021/11/04 03:52:33;;;;;;;80.75;33.35;;;;;;;;;;4943310;29;20434;-67
2021/11/04 03:54:58;;;;;;;78.78;32.70;;;;;;;;;;4931788;29;20031;-66
2021/11/04 03:57:24;;;;;;;77.93;32.75;;;;;;;;;;4942021;28;20039;-65
2021/11/04 03:59:50;;;;;;;76.55;33.13;;;;;;;;;;4957261;28;20656;-65
2021/11/04 04:02:15;;;;;;;80.80;34.33;;;;;;;;;;4930129;29;20473;-64
2021/11/04 04:04:40;;;;;;;84.90;34.65;;;;;;;;;;4926132;29;20038;-65
2021/11/04 04:07:05;;;;;;;78.97;32.42;;;;;;;;;;4935497;28;20050;-66
2021/11/04 04:09:31;;;;;;;84.75;33.00;;;;;;;;;;4941814;28;20023;-66
2021/11/04 04:11:56;;;;;;;85.63;34.88;;;;;;;;;;4940131;28;20083;-66
2021/11/04 04:14:21;;;;;;;88.32;35.65;;;;;;;;;;4941298;29;20046;-66
2021/11/04 04:16:46;;;;;;;88.03;36.03;;;;;;;;;;4940030;28;20518;-65
2021/11/04 04:19:12;;;;;;;78.32;32.60;;;;;;;;;;4938214;29;20118;-66
2021/11/04 04:21:37;;;;;;;75.13;32.90;;;;;;;;;;4944112;28;20053;-66
2021/11/04 04:24:02;;;;;;;78.97;31.10;;;;;;;;;;4942607;28;20034;-66
2021/11/04 04:26:28;;;;;;;72.07;32.75;;;;;;;;;;4945572;28;20039;-66
2021/11/04 04:28:53;;;;;;;67.95;29.90;;;;;;;;;;4942378;28;20038;-65
2021/11/04 04:31:18;;;;;;;76.85;31.65;;;;;;;;;;4941564;28;20032;-65
2021/11/04 04:33:43;;;;;;;73.53;30.75;;;;;;;;;;4943818;29;20055;-65
2021/11/04 04:36:08;;;;;;;65.60;29.10;;;;;;;;;;4948199;28;20039;-65
2021/11/04 04:38:34;;;;;;;68.53;28.90;;;;;;;;;;4948484;28;20038;-64
2021/11/04 04:40:59;;;;;;;67.35;27.75;;;;;;;;;;4940408;28;20272;-64
2021/11/04 04:43:24;;;;;;;71.00;30.88;;;;;;;;;;4939959;29;20035;-64
2021/11/04 04:45:49;;;;;;;70.57;30.67;;;;;;;;;;4938480;28;20058;-65
2021/11/04 04:48:15;;;;;;;73.22;31.40;;;;;;;;;;4942583;28;20561;-65
2021/11/04 04:50:40;;;;;;;69.55;31.20;;;;;;;;;;4943691;28;20028;-65
2021/11/04 04:53:06;;;;;;;74.50;30.98;;;;;;;;;;4939899;29;20098;-65
2021/11/04 04:55:31;;;;;;;67.32;30.00;;;;;;;;;;4940528;29;20040;-65
2021/11/04 04:57:56;;;;;;;67.70;30.55;;;;;;;;;;4939832;28;20035;-64
2021/11/04 05:00:22;;;;;;;69.68;30.15;;;;;;;;;;4938002;28;20118;-65
2021/11/04 05:02:47;;;;;;;68.82;29.25;;;;;;;;;;4942897;28;20374;-67
2021/11/04 05:05:13;;;;;;;66.82;28.80;;;;;;;;;;4945959;28;20152;-65
2021/11/04 05:07:38;;;;;;;68.60;28.98;;;;;;;;;;4945232;28;20039;-65
2021/11/04 05:10:04;;;;;;;66.90;28.58;;;;;;;;;;4944853;28;20344;-65
2021/11/04 05:12:29;;;;;;;61.58;26.55;;;;;;;;;;4943726;28;20489;-65
2021/11/04 05:14:54;;;;;;;62.97;25.80;;;;;;;;;;4949497;28;20051;-65
2021/11/04 05:17:20;;;;;;;57.53;26.83;;;;;;;;;;4942365;28;20138;-65
2021/11/04 05:19:45;;;;;;;55.95;25.20;;;;;;;;;;4946358;28;20600;-64
2021/11/04 05:22:11;;;;;;;57.75;25.13;;;;;;;;;;4941537;28;20539;-65
2021/11/04 05:24:36;;;;;;;54.85;25.58;;;;;;;;;;4946138;28;20011;-65
2021/11/04 05:27:02;;;;;;;63.78;26.92;;;;;;;;;;4946295;28;20497;-64
2021/11/04 05:29:28;;;;;;;57.42;23.77;;;;;;;;;;4942650;28;20023;-64
2021/11/04 05:31:53;;;;;;;53.03;23.55;;;;;;;;;;4947793;28;20364;-64
2021/11/04 05:34:18;;;;;;;60.10;25.77;;;;;;;;;;4945012;28;20494;-65
2021/11/04 05:36:43;;;;;;;56.92;25.77;;;;;;;;;;4944380;28;20691;-65
2021/11/04 05:39:09;;;;;;;59.92;25.88;;;;;;;;;;4946692;28;20509;-65
2021/11/04 05:41:34;;;;;;;57.10;25.05;;;;;;;;;;4945386;28;20442;-66
2021/11/04 05:44:00;;;;;;;64.93;26.90;;;;;;;;;;4949078;28;20094;-65
2021/11/04 05:46:25;;;;;;;61.90;26.42;;;;;;;;;;4946723;28;20043;-65
2021/11/04 05:48:51;;;;;;;59.75;26.75;;;;;;;;;;4947812;28;20406;-65
2021/11/04 05:51:16;;;;;;;51.75;24.73;;;;;;;;;;4935541;29;20517;-65
2021/11/04 05:53:41;;;;;;;61.40;27.30;;;;;;;;;;4959618;28;20053;-65
2021/11/04 05:56:06;;;;;;;55.60;24.23;;;;;;;;;;4947959;28;20145;-66
2021/11/04 05:58:32;;;;;;;57.92;24.73;;;;;;;;;;4949459;28;20521;-65
2021/11/04 06:00:57;;;;;;;60.47;25.30;;;;;;;;;;4946686;28;20039;-65
2021/11/04 06:03:22;;;;;;;62.45;26.10;;;;;;;;;;4936968;28;20035;-65
2021/11/04 06:05:47;;;;;;;48.85;22.35;;;;;;;;;;4952025;28;20048;-65
2021/11/04 06:08:13;;;;;;;59.58;24.98;;;;;;;;;;4948843;28;20517;-65
2021/11/04 06:10:38;;;;;;;59.08;22.95;;;;;;;;;;4943437;28;20097;-65
2021/11/04 06:13:03;;;;;;;57.55;25.30;;;;;;;;;;4941884;28;20023;-65
2021/11/04 06:15:28;;;;;;;71.55;28.73;;;;;;;;;;4940421;28;20058;-65
2021/11/04 06:17:54;;;;;;;55.15;24.23;;;;;;;;;;4944737;28;20074;-65
2021/11/04 06:20:19;;;;;;;60.72;23.27;;;;;;;;;;4948174;28;20466;-65
2021/11/04 06:22:44;;;;;;;59.50;25.45;;;;;;;;;;4957310;28;20251;-66
2021/11/04 06:25:09;;;;;;;56.58;23.00;;;;;;;;;;4936447;28;20041;-66
2021/11/04 06:27:35;;;;;;;59.70;23.55;;;;;;;;;;4941411;28;20016;-66
2021/11/04 06:30:02;;;;;;;50.97;23.08;;;;;;;;;;4945645;28;20055;-66
2021/11/04 06:32:27;;;;;;;56.58;23.80;;;;;;;;;;4938095;28;20327;-66
2021/11/04 06:34:52;;;;;;;59.67;25.67;;;;;;;;;;4940131;28;20035;-66
2021/11/04 06:37:18;;;;;;;56.03;24.38;;;;;;;;;;4946602;28;20047;-66
2021/11/04 06:39:43;;;;;;;57.83;23.92;;;;;;;;;;4948438;29;20535;-66
2021/11/04 06:42:08;;;;;;;61.03;24.52;;;;;;;;;;4942011;28;20047;-64
2021/11/04 06:44:33;;;;;;;58.72;24.55;;;;;;;;;;4946345;28;20079;-66
2021/11/04 06:47:00;;;;;;;54.75;24.42;;;;;;;;;;4954970;28;20094;-64
2021/11/04 06:49:25;;;;;;;56.78;24.27;;;;;;;;;;4940308;28;20027;-67
2021/11/04 06:51:51;;;;;;;58.17;23.88;;;;;;;;;;4947798;28;20050;-66
2021/11/04 06:54:17;;;;;;;59.55;25.77;;;;;;;;;;4944328;29;20452;-67
2021/11/04 06:56:43;;;;;;;55.92;24.25;;;;;;;;;;4946498;28;20043;-64
2021/11/04 06:59:26;;;;;;;60.65;26.38;;;;;;;;;;4927278;29;20067;-66
2021/11/04 07:01:54;;;;;;;62.25;26.52;;;;;;;;;;4944292;28;20121;-66
2021/11/04 07:04:25;;;;;;;56.45;25.67;;;;;;;;;;4949363;28;20027;-66
2021/11/04 07:06:59;;;;;;;46.08;21.55;;;;;;;;;;4961139;28;20063;-66
2021/11/04 07:09:25;;;;;;;48.92;20.45;;;;;;;;;;4947957;28;20552;-66
2021/11/04 07:11:50;;;;;;;48.10;21.50;;;;;;;;;;4949240;28;20279;-66
2021/11/04 07:14:16;;;;;;;35.13;17.05;;;;;;;;;;4944410;28;20060;-66
2021/11/04 07:16:41;;;;;;;47.28;20.98;;;;;;;;;;4942035;28;20039;-65
2021/11/04 07:19:06;;;;;;;63.92;29.60;;;;;;;;;;4945336;28;20035;-66
2021/11/04 07:21:32;;;;;;;47.30;20.67;;;;;;;;;;4944503;28;20264;-66
2021/11/04 07:23:58;;;;;;;46.50;20.23;;;;;;;;;;4939024;28;20024;-65
2021/11/04 07:26:25;;;;;;;45.67;21.58;;;;;;;;;;4943911;28;20594;-66
2021/11/04 07:28:53;;;;;;;56.05;22.38;;;;;;;;;;4940424;29;20718;-66
2021/11/04 07:31:18;;;;;;;53.85;23.02;;;;;;;;;;4940503;28;20512;-65
2021/11/04 07:33:44;;;;;;;54.10;25.13;;;;;;;;;;4937970;29;20074;-66
2021/11/04 07:36:10;;;;;;;43.00;19.50;;;;;;;;;;4934997;28;20078;-66
2021/11/04 07:38:35;;;;;;;49.13;22.23;;;;;;;;;;4945734;28;20019;-66
2021/11/04 07:41:01;;;;;;;50.78;21.65;;;;;;;;;;4953023;28;20094;-66
2021/11/04 07:43:29;;;;;;;59.60;24.17;;;;;;;;;;4948287;28;20027;-66
2021/11/04 07:45:54;;;;;;;50.08;24.35;;;;;;;;;;4946561;28;20047;-66
2021/11/04 07:48:21;;;;;;;48.50;21.27;;;;;;;;;;4941969;28;20035;-66
2021/11/04 07:50:49;;;;;;;51.72;21.85;;;;;;;;;;4942173;28;20285;-66
2021/11/04 07:53:14;;;;;;;47.67;22.92;;;;;;;;;;4938460;28;20061;-66
2021/11/04 07:55:40;;;;;;;51.85;23.17;;;;;;;;;;4946636;28;20494;-66
2021/11/04 07:58:05;;;;;;;52.03;22.58;;;;;;;;;;4939158;28;20078;-66
2021/11/04 08:00:30;;;;;;;50.22;21.65;;;;;;;;;;4943884;28;20039;-66
2021/11/04 08:02:56;;;;;;;45.10;20.80;;;;;;;;;;4947014;28;20518;-66
2021/11/04 08:05:23;;;;;;;47.78;21.33;;;;;;;;;;4946794;28;20564;-66
2021/11/04 08:07:48;;;;;;;42.78;19.00;;;;;;;;;;4946819;28;20125;-65
2021/11/04 08:10:14;;;;;;;41.00;18.70;;;;;;;;;;4943705;28;20063;-65
2021/11/04 08:12:40;;;;;;;43.05;19.15;;;;;;;;;;4944468;28;20090;-65
2021/11/04 08:15:06;;;;;;;36.58;18.23;;;;;;;;;;4937786;28;20056;-65
2021/11/04 08:17:31;;;;;;;38.58;18.88;;;;;;;;;;4939928;28;20038;-65
2021/11/04 08:19:57;;;;;;;38.63;18.17;;;;;;;;;;4945293;28;20031;-65
2021/11/04 08:22:23;;;;;;;38.17;18.98;;;;;;;;;;4945692;28;20520;-65
2021/11/04 08:24:48;;;;;;;34.03;17.75;;;;;;;;;;4939609;28;20027;-65
2021/11/04 08:27:14;;;;;;;34.63;17.05;;;;;;;;;;4939035;28;20401;-65
2021/11/04 08:29:39;;;;;;;33.72;17.23;;;;;;;;;;4947820;28;20065;-65
2021/11/04 08:32:05;;;;;;;37.72;16.60;;;;;;;;;;4947773;28;20066;-65
2021/11/04 08:34:30;;;;;;;40.53;17.52;;;;;;;;;;4939318;28;20038;-65
2021/11/04 08:36:55;;;;;;;38.50;18.42;;;;;;;;;;4934889;28;20502;-65
2021/11/04 08:39:20;;;;;;;34.92;18.13;;;;;;;;;;4939642;28;20023;-66
2021/11/04 08:41:46;;;;;;;39.15;19.05;;;;;;;;;;4942929;28;20047;-65
2021/11/04 08:44:11;;;;;;;44.50;19.50;;;;;;;;;;4939371;28;20024;-65
2021/11/04 08:46:36;;;;;;;47.08;20.00;;;;;;;;;;4943805;28;20133;-67
2021/11/04 08:49:01;;;;;;;41.80;18.60;;;;;;;;;;4945078;28;20477;-65
2021/11/04 08:51:27;;;;;;;38.10;17.77;;;;;;;;;;4943175;28;20045;-64
2021/11/04 08:53:52;;;;;;;42.05;17.98;;;;;;;;;;4945917;28;20051;-65
2021/11/04 08:56:17;;;;;;;36.25;17.80;;;;;;;;;;4944611;28;20146;-65
2021/11/04 08:58:42;;;;;;;41.45;18.85;;;;;;;;;;4945521;28;20035;-67
2021/11/04 09:01:08;;;;;;;42.58;18.25;;;;;;;;;;4962701;28;20047;-65
2021/11/04 09:03:33;;;;;;;37.83;17.83;;;;;;;;;;4952544;28;20027;-65
2021/11/04 09:05:59;;;;;;;41.85;17.73;;;;;;;;;;4957206;28;20490;-66
2021/11/04 09:08:25;;;;;;;47.13;17.88;;;;;;;;;;4957780;28;20023;-67
2021/11/04 09:10:51;;;;;;;40.67;17.67;;;;;;;;;;4938232;28;20031;-66
2021/11/04 09:13:16;;;;;;;34.05;17.30;;;;;;;;;;4950068;28;20110;-65
2021/11/04 09:15:41;;;;;;;40.38;18.33;;;;;;;;;;4945774;28;20676;-65
2021/11/04 09:18:06;;;;;;;37.88;17.05;;;;;;;;;;4950384;28;20077;-65
2021/11/04 09:20:32;;;;;;;33.45;15.93;;;;;;;;;;4943729;28;20219;-65
2021/11/04 09:22:57;;;;;;;33.83;16.25;;;;;;;;;;4946164;29;20454;-65
2021/11/04 09:25:22;;;;;;;37.67;15.45;;;;;;;;;;4944815;28;20036;-67
2021/11/04 09:27:48;;;;;;;36.80;16.38;;;;;;;;;;4958533;28;20031;-66
2021/11/04 09:30:14;;;;;;;33.40;15.07;;;;;;;;;;4948392;28;20023;-66
2021/11/04 09:32:39;;;;;;;31.20;15.10;;;;;;;;;;4947647;28;20034;-65
2021/11/04 09:35:07;;;;;;;46.50;18.35;;;;;;;;;;4944988;28;20027;-65
2021/11/04 09:37:32;;;;;;;37.45;15.75;;;;;;;;;;4948966;28;20039;-66
2021/11/04 09:39:57;;;;;;;34.10;16.00;;;;;;;;;;4946231;28;20024;-65
2021/11/04 09:42:23;;;;;;;36.05;15.65;;;;;;;;;;4944107;28;20043;-65
2021/11/04 09:44:48;;;;;;;32.65;14.93;;;;;;;;;;4948646;28;20027;-65
2021/11/04 09:47:18;;;;;;;29.45;13.90;;;;;;;;;;4945149;28;20038;-65
2021/11/04 09:49:43;;;;;;;27.15;12.50;;;;;;;;;;4949017;28;20042;-65
2021/11/04 09:52:08;;;;;;;33.58;13.65;;;;;;;;;;4940812;28;20043;-65
2021/11/04 09:54:34;;;;;;;26.75;11.82;;;;;;;;;;4954137;28;20027;-65
2021/11/04 09:56:59;;;;;;;32.35;13.68;;;;;;;;;;4944952;28;20043;-64
2021/11/04 09:59:24;;;;;;;28.50;13.57;;;;;;;;;;4947054;29;20520;-64
2021/11/04 10:01:49;;;;;;;32.45;13.40;;;;;;;;;;4941257;28;20553;-66
2021/11/04 10:04:17;;;;;;;31.63;13.02;;;;;;;;;;4941136;28;20773;-67
2021/11/04 10:06:42;;;;;;;26.13;12.77;;;;;;;;;;4943433;28;20039;-65
2021/11/04 10:09:09;;;;;;;27.08;12.02;;;;;;;;;;4944579;28;20046;-65
2021/11/04 10:11:36;;;;;;;25.40;12.00;;;;;;;;;;4947772;28;20456;-65
2021/11/04 10:14:10;;;;;;;24.40;12.32;;;;;;;;;;4946578;28;20398;-65
2021/11/04 10:16:35;;;;;;;28.02;12.90;;;;;;;;;;4945498;28;20055;-65
2021/11/04 10:19:04;;;;;;;23.60;11.15;;;;;;;;;;4944652;28;20046;-65
2021/11/04 10:21:30;;;;;;;28.75;12.25;;;;;;;;;;4937710;28;20494;-65
2021/11/04 10:23:55;;;;;;;26.48;11.57;;;;;;;;;;4935241;29;20031;-65
2021/11/04 10:26:21;;;;;;;22.98;10.68;;;;;;;;;;4945617;28;20406;-65
2021/11/04 10:28:47;;;;;;;23.73;10.43;;;;;;;;;;4947708;28;20027;-65
2021/11/04 10:31:14;;;;;;;23.08;10.57;;;;;;;;;;4942595;28;20443;-65
2021/11/04 10:33:40;;;;;;;20.85;10.18;;;;;;;;;;4942004;29;20118;-65
2021/11/04 10:36:05;;;;;;;19.67;9.50;;;;;;;;;;4946598;28;20224;-65
2021/11/04 10:38:32;;;;;;;19.27;9.25;;;;;;;;;;4947484;28;20120;-65
2021/11/04 10:40:57;;;;;;;23.70;9.85;;;;;;;;;;4949393;28;20098;-65
2021/11/04 10:43:23;;;;;;;32.97;10.45;;;;;;;;;;4945153;28;20024;-65
2021/11/04 10:45:57;;;;;;;22.95;10.48;;;;;;;;;;4946225;28;20067;-65
2021/11/04 10:48:22;;;;;;;20.38;9.05;;;;;;;;;;4946543;29;20122;-65
2021/11/04 10:50:48;;;;;;;20.90;9.13;;;;;;;;;;4945338;28;20126;-65
2021/11/04 10:53:17;;;;;;;20.20;9.05;;;;;;;;;;4946383;28;20426;-65
2021/11/04 10:55:42;;;;;;;22.00;10.15;;;;;;;;;;4943934;29;20054;-65
2021/11/04 10:58:28;;;;;;;24.30;10.88;;;;;;;;;;4947714;28;20027;-65
2021/11/04 11:00:53;;;;;;;22.25;9.82;;;;;;;;;;4945100;28;20047;-65
2021/11/04 11:03:19;;;;;;;21.45;9.93;;;;;;;;;;4945177;28;20153;-65
2021/11/04 11:05:44;;;;;;;23.77;10.10;;;;;;;;;;4949377;28;20107;-65
2021/11/04 11:08:09;;;;;;;24.90;10.30;;;;;;;;;;4940761;28;20521;-65
2021/11/04 11:10:44;;;;;;;24.05;10.45;;;;;;;;;;4943129;28;20031;-66
2021/11/04 11:13:09;;;;;;;18.33;8.63;;;;;;;;;;4945079;28;20023;-66
2021/11/04 11:15:36;;;;;;;20.48;8.35;;;;;;;;;;4947324;28;20049;-66
2021/11/04 11:18:02;;;;;;;20.85;8.70;;;;;;;;;;4947597;28;20031;-66
2021/11/04 11:20:27;;;;;;;17.42;8.25;;;;;;;;;;4950123;28;20042;-66
2021/11/04 11:22:55;;;;;;;16.05;8.23;;;;;;;;;;4951730;28;20019;-66
2021/11/04 11:25:20;;;;;;;16.95;8.13;;;;;;;;;;4947258;28;20043;-67
2021/11/04 11:27:53;;;;;;;20.30;8.70;;;;;;;;;;4947390;28;20764;-66
2021/11/04 11:30:18;;;;;;;16.05;8.38;;;;;;;;;;4941558;28;20474;-66
2021/11/04 11:32:46;;;;;;;16.65;8.52;;;;;;;;;;4946984;28;20034;-66
2021/11/04 11:37:55;;;;;;;16.08;7.47;;;;;;;;;;4945199;28;20046;-66
2021/11/04 11:40:20;;;;;;;20.85;8.50;;;;;;;;;;4937778;28;20062;-65
2021/11/04 11:42:58;;;;;;;14.68;7.90;;;;;;;;;;4943788;28;20058;-65
2021/11/04 11:45:24;;;;;;;20.75;8.05;;;;;;;;;;4942956;28;20035;-65
2021/11/04 11:47:49;;;;;;;15.55;8.13;;;;;;;;;;4943246;29;20027;-65
2021/11/04 11:50:21;;;;;;;14.38;7.30;;;;;;;;;;4945548;28;20441;-67
2021/11/04 11:52:53;;;;;;;21.20;7.68;;;;;;;;;;4939070;29;20028;-66
2021/11/04 11:55:22;;;;;;;16.02;7.05;;;;;;;;;;4938279;28;20415;-65
2021/11/04 11:58:06;;;;;;;17.20;7.88;;;;;;;;;;4945434;28;20046;-65
2021/11/04 12:00:47;;;;;;;15.13;7.65;;;;;;;;;;4941461;28;21084;-65
2021/11/04 12:03:12;;;;;;;15.13;7.82;;;;;;;;;;4919552;29;20022;-65
2021/11/04 12:05:37;;;;;;;18.08;7.78;;;;;;;;;;4939266;28;20465;-65
2021/11/04 12:08:09;;;;;;;15.80;7.65;;;;;;;;;;4938769;28;20847;-65
2021/11/04 12:10:40;;;;;;;20.60;10.00;;;;;;;;;;4942617;28;20046;-65
2021/11/04 12:13:05;;;;;;;20.33;8.15;;;;;;;;;;4945940;28;20099;-65
2021/11/04 12:15:31;;;;;;;20.90;9.82;;;;;;;;;;4944893;28;20554;-65
2021/11/04 12:18:16;;;;;;;21.20;10.18;;;;;;;;;;4945327;28;20115;-65
2021/11/04 12:20:52;;;;;;;21.77;10.90;;;;;;;;;;4943992;28;20070;-65
2021/11/04 12:23:18;;;;;;;20.05;8.52;;;;;;;;;;4945436;28;20027;-68
2021/11/04 12:25:43;;;;;;;16.35;7.55;;;;;;;;;;4945169;28;20031;-65
2021/11/04 12:28:08;;;;;;;21.20;9.05;;;;;;;;;;4943675;28;20486;-64
2021/11/04 12:30:34;;;;;;;18.20;8.63;;;;;;;;;;4945259;28;20098;-66
2021/11/04 12:33:03;;;;;;;19.40;7.32;;;;;;;;;;4944524;29;20059;-66
2021/11/04 12:35:43;;;;;;;15.45;7.03;;;;;;;;;;4944880;28;20058;-65
2021/11/04 12:38:09;;;;;;;14.02;5.72;;;;;;;;;;4944569;29;20031;-66
2021/11/04 12:40:34;;;;;;;5.18;2.33;;;;;;;;;;4946161;28;20641;-66
2021/11/04 12:43:09;;;;;;;5.35;2.40;;;;;;;;;;4950535;28;20452;-65
2021/11/04 12:45:34;;;;;;;6.40;2.55;;;;;;;;;;4940174;28;20039;-65
2021/11/04 12:48:03;;;;;;;5.55;2.63;;;;;;;;;;4947860;28;20023;-65
2021/11/04 12:50:30;;;;;;;4.70;2.05;;;;;;;;;;4947554;28;20055;-65
2021/11/04 12:53:00;;;;;;;5.07;2.05;;;;;;;;;;4949386;28;20038;-65
2021/11/04 12:55:25;;;;;;;4.68;2.00;;;;;;;;;;4944755;28;20039;-66
2021/11/04 12:57:51;;;;;;;2.55;1.50;;;;;;;;;;4946925;28;20027;-66
2021/11/04 13:00:17;;;;;;;9.20;2.00;;;;;;;;;;4947910;28;20246;-64
2021/11/04 13:02:43;;;;;;;5.05;1.85;;;;;;;;;;4947942;28;20473;-66
2021/11/04 13:05:11;;;;;;;3.42;1.85;;;;;;;;;;4944274;28;20086;-66
2021/11/04 13:07:37;;;;;;;3.38;1.55;;;;;;;;;;4947923;29;20628;-65
2021/11/04 13:10:06;;;;;;;6.93;1.77;;;;;;;;;;4946249;28;20041;-65
2021/11/04 13:12:37;;;;;;;4.18;1.73;;;;;;;;;;4948731;28;20465;-65
2021/11/04 13:15:03;;;;;;;4.75;1.92;;;;;;;;;;4947394;28;20039;-64
2021/11/04 13:17:37;;;;;;;5.65;2.45;;;;;;;;;;4946928;28;20442;-64
2021/11/04 13:20:05;;;;;;;7.57;2.58;;;;;;;;;;4949056;28;20042;-66
2021/11/04 13:22:30;;;;;;;8.95;3.30;;;;;;;;;;4948290;28;20015;-64
2021/11/04 13:24:56;;;;;;;8.73;4.18;;;;;;;;;;4946898;28;20755;-65
2021/11/04 13:27:22;;;;;;;9.20;4.22;;;;;;;;;;4947105;28;20156;-64
2021/11/04 13:29:48;;;;;;;10.85;5.30;;;;;;;;;;4948636;28;20011;-66
2021/11/04 13:32:13;;;;;;;12.57;5.22;;;;;;;;;;4945768;28;20035;-65
2021/11/04 13:34:39;;;;;;;13.93;6.82;;;;;;;;;;4942310;28;20382;-65
2021/11/04 13:37:17;;;;;;;13.77;6.07;;;;;;;;;;4946747;28;20352;-65
2021/11/04 13:39:42;;;;;;;12.35;5.95;;;;;;;;;;4948261;28;20015;-65
2021/11/04 13:42:07;;;;;;;15.90;6.30;;;;;;;;;;4942357;28;20655;-64
2021/11/04 13:44:34;;;;;;;15.20;6.13;;;;;;;;;;4945612;28;20031;-66
2021/11/04 13:46:59;;;;;;;11.57;5.65;;;;;;;;;;4943341;28;20043;-67
2021/11/04 13:49:24;;;;;;;17.02;7.15;;;;;;;;;;4942161;28;20479;-65
2021/11/04 13:51:53;;;;;;;10.57;4.90;;;;;;;;;;4941058;28;20457;-66
2021/11/04 13:54:22;;;;;;;16.73;9.23;;;;;;;;;;4947121;28;20027;-64
2021/11/04 13:56:57;;;;;;;12.63;6.07;;;;;;;;;;4947176;28;20043;-64
2021/11/04 13:59:41;;;;;;;14.63;6.45;;;;;;;;;;4941828;28;20667;-64
2021/11/04 14:02:10;;;;;;;15.25;6.70;;;;;;;;;;4940694;28;20043;-64
2021/11/04 14:04:48;;;;;;;18.33;6.95;;;;;;;;;;4937104;28;20027;-68
2021/11/04 14:07:27;;;;;;;17.85;6.68;;;;;;;;;;4950216;28;20063;-63
2021/11/04 14:09:58;;;;;;;18.23;5.35;;;;;;;;;;4945244;28;20176;-63
2021/11/04 14:12:26;;;;;;;11.30;5.03;;;;;;;;;;4944431;28;20442;-63
2021/11/04 14:14:51;;;;;;;13.20;5.88;;;;;;;;;;4944617;28;20902;-63
2021/11/04 14:17:23;;;;;;;11.68;5.72;;;;;;;;;;4956513;28;20051;-62
2021/11/04 14:19:48;;;;;;;11.02;5.90;;;;;;;;;;4941100;28;20720;-62